Stringtown, Missouri
Current Conditions -  °F | °C
As of 5:53 PM on Saturday 20 Dec 2014 (Local Time) from KJLN Reporting Station
Overcast Overcast  
Wind Chill: 38°   Ceiling: 2100
Heat Index: 43°   Visibility: 10mi
Dew Point: 35°   Wind: 9mph
Humidity: 74%   Direction: 180°S
Pressure: 30.18"   Gusts: NA
Location:  37.2082°N, 94.5634°W
Report Text: KJLN 202353Z 18008KT 10SM OVC021 06/02 A3018 RMK AO2 SLP223 T00610017 10072 20056 55000 $
Loading
Personal Weather Stations






























Interactive Weather Map New forecast layout! Learn more

10-Day Weather Forecast

Advertisements
Track Severe Weather on mobile